createdAt,value
2022-11-27T00:01:37.799Z,3.95
2022-11-27T00:04:07.993Z,3.92
2022-11-27T00:06:37.759Z,3.88
2022-11-27T00:09:09.829Z,3.80
2022-11-27T00:11:39.571Z,3.63
2022-11-27T00:14:09.684Z,3.55
2022-11-27T00:16:38.025Z,3.54
2022-11-27T00:19:06.806Z,3.56
2022-11-27T00:21:36.967Z,3.55
2022-11-27T00:24:09.867Z,3.49
2022-11-27T00:26:38.725Z,3.45
2022-11-27T00:29:07.734Z,3.43
2022-11-27T00:31:38.075Z,3.45
2022-11-27T00:34:09.482Z,3.46
2022-11-27T00:36:39.796Z,3.58
2022-11-27T00:39:12.656Z,3.65
2022-11-27T00:41:41.338Z,3.70
2022-11-27T00:44:09.858Z,3.71
2022-11-27T00:46:38.539Z,3.68
2022-11-27T00:49:08.995Z,3.66
2022-11-27T00:51:37.504Z,3.63
2022-11-27T00:54:06.540Z,3.68
2022-11-27T00:56:39.736Z,3.75
2022-11-27T00:59:09.657Z,3.80
2022-11-27T01:01:40.205Z,3.88
2022-11-27T01:04:12.216Z,3.88
2022-11-27T01:06:41.187Z,3.84
2022-11-27T01:09:10.220Z,3.92
2022-11-27T01:11:41.662Z,3.93
2022-11-27T01:14:13.387Z,3.95
2022-11-27T01:16:43.264Z,3.92
2022-11-27T01:19:13.819Z,3.94
2022-11-27T01:21:42.814Z,3.92
2022-11-27T01:24:13.379Z,3.92
2022-11-27T01:26:43.784Z,3.87
2022-11-27T01:29:12.818Z,3.81
2022-11-27T01:31:41.739Z,3.72
2022-11-27T01:34:18.078Z,3.74
2022-11-27T01:36:47.139Z,3.71
2022-11-27T01:39:17.889Z,3.68
2022-11-27T01:41:49.178Z,3.66
2022-11-27T01:44:40.079Z,3.64
2022-11-27T01:47:14.836Z,3.55
2022-11-27T01:49:49.966Z,3.50
2022-11-27T01:52:22.658Z,3.45
2022-11-27T01:54:56.818Z,3.38
2022-11-27T01:57:30.775Z,3.31
2022-11-27T02:00:02.399Z,3.25
2022-11-27T02:02:45.425Z,3.08
2022-11-27T02:05:18.061Z,3.06
2022-11-27T02:07:48.147Z,3.05
2022-11-27T02:10:18.619Z,3.06
2022-11-27T02:12:58.679Z,3.09
2022-11-27T02:15:33.722Z,3.09
2022-11-27T02:18:20.503Z,3.06
2022-11-27T02:20:54.327Z,2.96
2022-11-27T02:23:54.599Z,2.99
2022-11-27T02:27:01.456Z,2.99
2022-11-27T02:29:34.680Z,2.94
2022-11-27T02:32:10.417Z,3.02
2022-11-27T02:34:47.879Z,3.01
2022-11-27T02:37:23.471Z,2.95
2022-11-27T02:39:58.438Z,3.00
2022-11-27T02:42:33.507Z,2.95
2022-11-27T02:45:07.060Z,2.94
2022-11-27T02:47:36.519Z,2.88
2022-11-27T02:50:06.761Z,2.78
2022-11-27T02:52:35.417Z,2.85
2022-11-27T02:55:10.171Z,2.86
2022-11-27T02:57:41.141Z,2.74
2022-11-27T03:00:13.143Z,2.70
2022-11-27T03:02:47.546Z,2.64
2022-11-27T03:05:21.282Z,2.59
2022-11-27T03:07:55.712Z,2.56
2022-11-27T03:10:31.409Z,2.55
2022-11-27T03:13:01.863Z,2.54
2022-11-27T03:15:41.144Z,2.45
2022-11-27T03:18:18.579Z,2.33
2022-11-27T03:20:53.009Z,2.29
2022-11-27T03:23:21.714Z,2.22
2022-11-27T03:25:50.479Z,2.23
2022-11-27T03:28:19.152Z,2.29
2022-11-27T03:30:49.197Z,2.26
2022-11-27T03:33:19.618Z,2.28
2022-11-27T03:35:48.163Z,2.21
2022-11-27T03:38:17.208Z,2.25
2022-11-27T03:40:54.688Z,2.17
2022-11-27T03:43:27.122Z,2.12
2022-11-27T03:46:01.723Z,2.13
2022-11-27T03:48:36.642Z,2.09
2022-11-27T03:51:13.540Z,2.16
2022-11-27T03:53:53.912Z,2.14
2022-11-27T03:56:35.721Z,2.14
2022-11-27T03:59:10.370Z,2.09
2022-11-27T04:01:42.375Z,2.04
2022-11-27T04:04:11.320Z,2.02
2022-11-27T04:06:40.048Z,1.99
2022-11-27T04:09:08.691Z,2.00
2022-11-27T04:11:37.579Z,1.95
2022-11-27T04:14:06.246Z,1.94
2022-11-27T04:16:34.899Z,1.99
2022-11-27T04:19:05.061Z,2.02
2022-11-27T04:21:33.623Z,1.91
2022-11-27T04:24:02.255Z,1.80
2022-11-27T04:26:30.759Z,1.90
2022-11-27T04:28:59.230Z,1.96
2022-11-27T04:31:27.836Z,1.95
2022-11-27T04:33:56.591Z,1.87
2022-11-27T04:36:27.059Z,1.85
2022-11-27T04:38:56.113Z,1.75
2022-11-27T04:41:24.791Z,1.74
2022-11-27T04:43:53.289Z,1.74
2022-11-27T04:46:22.132Z,1.70
2022-11-27T04:48:50.702Z,1.74
2022-11-27T04:51:19.398Z,1.67
2022-11-27T04:53:49.383Z,1.65
2022-11-27T04:56:18.797Z,1.64
2022-11-27T04:58:47.489Z,1.62
2022-11-27T05:01:16.357Z,1.59
2022-11-27T05:03:44.940Z,1.58
2022-11-27T05:06:13.538Z,1.59
2022-11-27T05:08:42.150Z,1.60
2022-11-27T05:11:15.099Z,1.60
2022-11-27T05:13:44.362Z,1.53
2022-11-27T05:16:13.145Z,1.61
2022-11-27T05:18:41.850Z,1.63
2022-11-27T05:21:10.663Z,1.61
2022-11-27T05:23:39.191Z,1.57
2022-11-27T05:26:07.839Z,1.49
2022-11-27T05:28:37.891Z,1.47
2022-11-27T05:31:06.707Z,1.53
2022-11-27T05:33:35.294Z,1.52
2022-11-27T05:36:03.914Z,1.42
2022-11-27T05:38:32.404Z,1.44
2022-11-27T05:41:01.220Z,1.45
2022-11-27T05:43:29.981Z,1.38
2022-11-27T05:45:59.981Z,1.35
2022-11-27T05:48:28.669Z,1.32
2022-11-27T05:50:57.381Z,1.25
2022-11-27T05:53:26.081Z,1.17
2022-11-27T05:55:54.622Z,1.13
2022-11-27T05:58:25.073Z,1.10
2022-11-27T06:00:54.083Z,1.04
2022-11-27T06:03:24.314Z,1.10
2022-11-27T06:05:53.041Z,1.12
2022-11-27T06:08:22.039Z,1.11
2022-11-27T06:10:51.009Z,1.08
2022-11-27T06:13:19.634Z,1.11
2022-11-27T06:15:48.178Z,1.16
2022-11-27T06:18:16.844Z,1.16
2022-11-27T06:20:52.766Z,1.13
2022-11-27T06:23:22.518Z,1.09
2022-11-27T06:25:51.268Z,1.07
2022-11-27T06:28:19.641Z,1.06
2022-11-27T06:30:48.369Z,1.04
2022-11-27T06:33:17.010Z,1.00
2022-11-27T06:35:47.510Z,0.99
2022-11-27T06:38:16.119Z,0.94
2022-11-27T06:40:44.782Z,0.99
2022-11-27T06:43:13.420Z,1.05
2022-11-27T06:45:44.330Z,1.13
2022-11-27T06:48:12.961Z,1.16
2022-11-27T06:50:41.571Z,1.22
2022-11-27T06:53:11.654Z,1.30
2022-11-27T06:55:40.450Z,1.39
2022-11-27T06:58:09.014Z,1.44
2022-11-27T07:00:37.768Z,1.53
2022-11-27T07:03:06.262Z,1.66
2022-11-27T07:05:34.945Z,1.87
2022-11-27T07:08:03.664Z,2.00
2022-11-27T07:10:36.591Z,2.09
2022-11-27T07:13:05.216Z,2.17
2022-11-27T07:15:34.250Z,2.20
2022-11-27T07:18:02.980Z,2.25
2022-11-27T07:20:31.402Z,2.32
2022-11-27T07:23:00.041Z,2.42
2022-11-27T07:25:28.661Z,2.61
2022-11-27T07:27:59.192Z,2.78
2022-11-27T07:30:27.879Z,3.01
2022-11-27T07:32:56.584Z,3.15
2022-11-27T07:35:25.273Z,3.21
2022-11-27T07:37:53.711Z,3.34
2022-11-27T07:40:22.633Z,3.52
2022-11-27T07:42:51.531Z,3.75
2022-11-27T07:45:21.801Z,3.97
2022-11-27T07:47:50.356Z,4.14
2022-11-27T07:50:19.152Z,4.27
2022-11-27T07:52:47.722Z,4.34
2022-11-27T07:55:16.455Z,4.51
2022-11-27T07:57:45.494Z,4.64
2022-11-27T08:00:14.814Z,4.69
2022-11-27T08:02:44.700Z,4.66
2022-11-27T08:05:13.511Z,4.66
2022-11-27T08:07:42.163Z,4.79
2022-11-27T08:10:11.064Z,4.85
2022-11-27T08:12:39.593Z,4.94
2022-11-27T08:15:09.349Z,4.94
2022-11-27T08:17:37.850Z,4.89
2022-11-27T08:20:09.274Z,4.83
2022-11-27T08:22:37.876Z,4.83
2022-11-27T08:25:07.325Z,5.00
2022-11-27T08:27:36.494Z,5.09
2022-11-27T08:30:05.744Z,5.04
2022-11-27T08:32:34.536Z,4.95
2022-11-27T08:35:03.148Z,4.92
2022-11-27T08:37:33.187Z,4.94
2022-11-27T08:40:01.812Z,4.97
2022-11-27T08:42:30.386Z,5.06
2022-11-27T08:44:58.995Z,5.29
2022-11-27T08:47:27.787Z,5.26
2022-11-27T08:49:56.334Z,5.53
2022-11-27T08:52:24.766Z,5.54
2022-11-27T08:54:57.748Z,5.68
2022-11-27T08:57:26.866Z,5.87
2022-11-27T08:59:55.392Z,6.09
2022-11-27T09:02:24.017Z,6.29
2022-11-27T09:04:52.809Z,6.41
2022-11-27T09:07:21.518Z,6.46
2022-11-27T09:09:50.533Z,6.75
2022-11-27T09:12:21.241Z,6.83
2022-11-27T09:14:50.997Z,6.90
2022-11-27T09:17:19.752Z,7.01
2022-11-27T09:19:48.753Z,7.16
2022-11-27T09:22:17.290Z,7.24
2022-11-27T09:24:46.496Z,7.26
2022-11-27T09:27:14.939Z,7.49
2022-11-27T09:29:44.909Z,7.58
2022-11-27T09:32:13.662Z,7.60
2022-11-27T09:34:42.652Z,7.68
2022-11-27T09:37:11.591Z,7.73
2022-11-27T09:39:39.999Z,7.65
2022-11-27T09:42:11.094Z,7.75
2022-11-27T09:44:45.602Z,7.75
2022-11-27T09:47:21.343Z,7.82
2022-11-27T09:49:54.031Z,7.94
2022-11-27T09:52:29.846Z,8.24
2022-11-27T09:55:03.085Z,8.33
2022-11-27T09:57:36.019Z,8.41
2022-11-27T10:00:08.188Z,8.42
2022-11-27T10:02:38.363Z,8.51
2022-11-27T10:05:17.636Z,8.51
2022-11-27T10:08:07.204Z,8.55
2022-11-27T10:10:44.936Z,8.70
2022-11-27T10:13:29.955Z,8.70
2022-11-27T10:16:06.624Z,8.90
2022-11-27T10:18:46.797Z,9.22
2022-11-27T10:21:17.935Z,9.34
2022-11-27T10:23:55.817Z,9.44
2022-11-27T10:26:30.418Z,9.43
2022-11-27T10:29:05.232Z,9.38
2022-11-27T10:31:38.896Z,9.67
2022-11-27T10:34:34.447Z,9.73
2022-11-27T10:37:07.742Z,9.70
2022-11-27T10:39:41.353Z,9.59
2022-11-27T10:42:15.006Z,9.64
2022-11-27T10:44:49.049Z,9.70
2022-11-27T10:47:20.235Z,9.63
2022-11-27T10:49:50.192Z,9.54
2022-11-27T10:52:20.522Z,9.66
2022-11-27T10:54:54.922Z,9.60
2022-11-27T10:57:39.114Z,9.64
2022-11-27T11:00:13.704Z,9.63
2022-11-27T11:02:42.928Z,9.71
2022-11-27T11:08:19.615Z,10.02
2022-11-27T11:10:53.152Z,10.00
2022-11-27T11:13:27.677Z,9.83
2022-11-27T11:16:09.804Z,10.08
2022-11-27T11:18:45.190Z,10.14
2022-11-27T11:21:19.793Z,10.41
2022-11-27T11:23:59.089Z,10.39
2022-11-27T11:26:31.069Z,10.38
2022-11-27T11:29:03.432Z,10.39
2022-11-27T11:31:35.369Z,10.45
2022-11-27T11:34:08.568Z,10.38
2022-11-27T11:36:38.586Z,10.37
2022-11-27T11:39:07.256Z,10.42
2022-11-27T11:41:39.676Z,10.64
2022-11-27T11:44:22.201Z,10.60
2022-11-27T11:46:54.555Z,10.83
2022-11-27T11:49:27.775Z,10.95
2022-11-27T11:52:22.270Z,11.07
2022-11-27T11:55:00.612Z,11.28
2022-11-27T11:57:50.423Z,11.36
2022-11-27T12:00:28.070Z,11.29
2022-11-27T12:03:18.080Z,11.43
2022-11-27T12:06:07.581Z,11.69
2022-11-27T12:08:51.322Z,12.32
2022-11-27T12:11:23.441Z,13.01
2022-11-27T12:14:05.325Z,13.68
2022-11-27T12:16:42.876Z,14.09
2022-11-27T12:19:29.757Z,14.43
2022-11-27T12:22:05.055Z,14.69
2022-11-27T12:24:45.385Z,15.04
2022-11-27T12:27:24.824Z,15.01
2022-11-27T12:30:07.214Z,14.83
2022-11-27T12:32:57.424Z,14.73
2022-11-27T12:35:35.156Z,14.63
2022-11-27T12:38:29.497Z,13.98
2022-11-27T12:41:11.675Z,13.31
2022-11-27T12:43:45.538Z,12.47
2022-11-27T12:46:20.216Z,11.80
2022-11-27T12:48:55.153Z,11.26
2022-11-27T12:51:28.810Z,10.80
2022-11-27T12:54:02.877Z,10.49
2022-11-27T12:56:39.342Z,10.15
2022-11-27T12:59:17.918Z,9.84
2022-11-27T13:01:53.547Z,9.68
2022-11-27T13:04:28.585Z,9.53
2022-11-27T13:07:03.697Z,9.35
2022-11-27T13:09:43.955Z,9.17
2022-11-27T13:12:21.295Z,8.98
2022-11-27T13:14:56.477Z,8.79
2022-11-27T13:17:32.167Z,8.65
2022-11-27T13:20:02.394Z,8.52
2022-11-27T13:22:35.154Z,8.39
2022-11-27T13:25:04.931Z,8.26
2022-11-27T13:27:36.765Z,8.20
2022-11-27T13:30:08.299Z,8.06
2022-11-27T13:32:42.047Z,7.97
2022-11-27T13:35:23.309Z,7.89
2022-11-27T13:37:59.578Z,7.87
2022-11-27T13:40:32.922Z,7.78
2022-11-27T13:43:07.964Z,7.63
2022-11-27T13:45:38.920Z,7.52
2022-11-27T13:48:28.117Z,7.44
2022-11-27T13:50:57.828Z,7.34
2022-11-27T13:53:32.951Z,7.28
2022-11-27T13:56:01.762Z,7.20
2022-11-27T13:58:36.118Z,7.14
2022-11-27T14:01:17.495Z,7.09
2022-11-27T14:03:46.621Z,6.98
2022-11-27T14:06:23.192Z,6.97
2022-11-27T14:08:57.089Z,7.00
2022-11-27T14:11:41.447Z,6.97
2022-11-27T14:14:21.685Z,6.96
2022-11-27T14:16:58.051Z,6.97
2022-11-27T14:19:34.056Z,6.92
2022-11-27T14:22:15.433Z,6.81
2022-11-27T14:24:46.092Z,6.82
2022-11-27T14:27:20.592Z,6.77
2022-11-27T14:29:51.863Z,6.72
2022-11-27T14:32:22.329Z,6.63
2022-11-27T14:34:50.896Z,6.44
2022-11-27T14:37:25.920Z,6.59
2022-11-27T14:39:55.270Z,6.49
2022-11-27T14:42:28.901Z,6.50
2022-11-27T14:45:10.116Z,6.41
2022-11-27T14:47:50.209Z,6.34
2022-11-27T14:50:19.746Z,6.28
2022-11-27T14:52:53.730Z,6.24
2022-11-27T14:55:23.487Z,6.18
2022-11-27T14:57:53.737Z,5.98
2022-11-27T15:00:27.350Z,6.08
2022-11-27T15:02:56.880Z,5.98
2022-11-27T15:05:28.720Z,5.99
2022-11-27T15:08:00.135Z,5.91
2022-11-27T15:10:33.780Z,5.77
2022-11-27T15:13:04.327Z,5.62
2022-11-27T15:15:40.342Z,5.52
2022-11-27T15:18:10.320Z,5.33
2022-11-27T15:20:41.717Z,5.12
2022-11-27T15:23:18.523Z,4.97
2022-11-27T15:25:49.925Z,4.86
2022-11-27T15:28:30.834Z,4.67
2022-11-27T15:31:01.313Z,4.57
2022-11-27T15:33:32.315Z,4.55
2022-11-27T15:36:16.723Z,4.39
2022-11-27T15:38:46.680Z,4.30
2022-11-27T15:41:22.917Z,4.21
2022-11-27T15:43:51.756Z,3.92
2022-11-27T15:46:26.522Z,4.00
2022-11-27T15:48:55.281Z,4.11
2022-11-27T15:51:24.049Z,4.05
2022-11-27T15:53:52.753Z,4.03
2022-11-27T15:56:21.333Z,3.80
2022-11-27T15:58:49.764Z,4.01
2022-11-27T16:01:18.539Z,3.93
2022-11-27T16:03:48.576Z,3.93
2022-11-27T16:06:17.143Z,3.97
2022-11-27T16:08:45.754Z,3.86
2022-11-27T16:11:19.653Z,3.78
2022-11-27T16:13:48.365Z,3.70
2022-11-27T16:16:17.129Z,3.69
2022-11-27T16:18:46.165Z,3.69
2022-11-27T16:21:18.019Z,3.54
2022-11-27T16:23:47.117Z,3.47
2022-11-27T16:26:16.040Z,3.51
2022-11-27T16:28:44.734Z,3.42
2022-11-27T16:31:15.346Z,3.21
2022-11-27T16:33:44.016Z,3.14
2022-11-27T16:36:18.524Z,3.05
2022-11-27T16:38:48.905Z,3.00
2022-11-27T16:41:20.664Z,3.00
2022-11-27T16:43:51.449Z,2.97
2022-11-27T16:46:26.951Z,2.95
2022-11-27T16:48:56.624Z,2.94
2022-11-27T16:51:28.742Z,2.88
2022-11-27T16:53:59.932Z,2.83
2022-11-27T16:56:30.773Z,2.81
2022-11-27T16:59:03.155Z,2.71
2022-11-27T17:01:36.310Z,2.68
2022-11-27T17:04:09.262Z,2.58
2022-11-27T17:06:40.371Z,2.52
2022-11-27T17:09:10.322Z,2.49
2022-11-27T17:11:42.092Z,2.45
2022-11-27T17:14:11.270Z,2.44
2022-11-27T17:16:42.909Z,2.44
2022-11-27T17:19:14.119Z,2.44
2022-11-27T17:21:44.556Z,2.43
2022-11-27T17:24:15.968Z,2.37
2022-11-27T17:26:48.143Z,2.36
2022-11-27T17:29:19.068Z,2.30
2022-11-27T17:31:48.022Z,2.28
2022-11-27T17:34:18.563Z,2.26
2022-11-27T17:36:53.784Z,2.23
2022-11-27T17:39:23.368Z,2.18
2022-11-27T17:41:51.943Z,2.22
2022-11-27T17:44:20.584Z,2.27
2022-11-27T17:46:50.892Z,2.28
2022-11-27T17:49:22.323Z,2.31
2022-11-27T17:51:53.852Z,2.36
2022-11-27T17:54:22.876Z,2.38
2022-11-27T17:56:52.773Z,2.38
2022-11-27T17:59:22.598Z,2.46
2022-11-27T18:01:53.283Z,2.58
2022-11-27T18:04:23.474Z,2.69
2022-11-27T18:06:53.574Z,2.77
2022-11-27T18:09:25.213Z,2.70
2022-11-27T18:11:57.491Z,2.90
2022-11-27T18:14:26.425Z,2.96
2022-11-27T18:16:55.116Z,3.01
2022-11-27T18:19:23.724Z,3.04
2022-11-27T18:21:54.015Z,3.10
2022-11-27T18:24:24.248Z,3.14
2022-11-27T18:27:10.360Z,3.20
2022-11-27T18:29:43.010Z,3.30
2022-11-27T18:32:13.335Z,3.36
2022-11-27T18:34:42.494Z,3.33
2022-11-27T18:37:13.393Z,3.41
2022-11-27T18:39:44.593Z,3.21
2022-11-27T18:42:13.623Z,3.34
2022-11-27T18:44:44.959Z,3.33
2022-11-27T18:47:14.791Z,3.35
2022-11-27T18:49:45.646Z,3.32
2022-11-27T18:52:16.865Z,3.30
2022-11-27T18:54:45.714Z,3.24
2022-11-27T18:57:14.294Z,3.25
2022-11-27T18:59:45.068Z,3.26
2022-11-27T19:02:14.775Z,3.24
2022-11-27T19:04:45.062Z,3.16
2022-11-27T19:07:15.852Z,3.15
2022-11-27T19:09:45.007Z,3.19
2022-11-27T19:12:14.053Z,3.24
2022-11-27T19:14:42.833Z,3.26
2022-11-27T19:17:12.061Z,3.19
2022-11-27T19:19:56.458Z,3.20
2022-11-27T19:22:28.233Z,3.31
2022-11-27T19:24:58.445Z,3.35
2022-11-27T19:27:27.198Z,3.35
2022-11-27T19:29:56.011Z,3.34
2022-11-27T19:32:24.636Z,3.33
2022-11-27T19:34:53.360Z,3.33
2022-11-27T19:37:33.938Z,3.21
2022-11-27T19:40:07.301Z,3.44
2022-11-27T19:42:36.310Z,3.56
2022-11-27T19:45:05.214Z,3.50
2022-11-27T19:47:34.221Z,3.57
2022-11-27T19:50:02.836Z,3.58
2022-11-27T19:52:32.596Z,3.62
2022-11-27T19:55:01.196Z,3.66
2022-11-27T19:57:31.494Z,3.63
2022-11-27T20:00:00.266Z,3.55
2022-11-27T20:02:30.531Z,3.40
2022-11-27T20:05:00.118Z,3.38
2022-11-27T20:07:28.785Z,3.35
2022-11-27T20:09:57.631Z,3.26
2022-11-27T20:12:26.845Z,3.22
2022-11-27T20:14:58.936Z,3.13
2022-11-27T20:17:27.596Z,3.08
2022-11-27T20:19:56.214Z,3.02
2022-11-27T20:22:25.145Z,3.03
2022-11-27T20:25:17.810Z,2.91
2022-11-27T20:27:43.459Z,2.68
2022-11-27T20:30:14.072Z,2.90
2022-11-27T20:32:42.881Z,2.75
2022-11-27T20:35:11.614Z,2.88
2022-11-27T20:37:40.333Z,2.90
2022-11-27T20:40:10.439Z,2.87
2022-11-27T20:42:39.292Z,2.93
2022-11-27T20:45:09.384Z,3.05
2022-11-27T20:47:39.513Z,3.14
2022-11-27T20:50:09.380Z,3.09
2022-11-27T20:52:37.723Z,3.14
2022-11-27T20:55:07.441Z,3.22
2022-11-27T20:57:35.804Z,3.25
2022-11-27T21:00:05.431Z,3.25
2022-11-27T21:02:36.819Z,3.29
2022-11-27T21:05:07.519Z,3.37
2022-11-27T21:07:37.779Z,3.41
2022-11-27T21:10:08.023Z,3.52
2022-11-27T21:12:36.844Z,3.57
2022-11-27T21:15:06.705Z,3.54
2022-11-27T21:17:35.543Z,3.52
2022-11-27T21:20:04.599Z,3.54
2022-11-27T21:22:35.238Z,3.61
2022-11-27T21:25:03.954Z,3.44
2022-11-27T21:27:32.582Z,3.65
2022-11-27T21:30:01.365Z,3.68
2022-11-27T21:32:30.193Z,3.62
2022-11-27T21:34:59.065Z,3.64
2022-11-27T21:37:27.602Z,3.65
2022-11-27T21:39:58.440Z,3.67
2022-11-27T21:42:29.631Z,3.68
2022-11-27T21:44:59.690Z,3.65
2022-11-27T21:47:28.430Z,3.62
2022-11-27T21:49:56.994Z,3.59
2022-11-27T21:52:25.754Z,3.58
2022-11-27T21:54:54.544Z,3.56
2022-11-27T21:57:24.823Z,3.54
2022-11-27T21:59:53.693Z,3.53
2022-11-27T22:02:22.287Z,3.52
2022-11-27T22:04:51.612Z,3.43
2022-11-27T22:07:20.116Z,3.27
2022-11-27T22:09:48.755Z,3.45
2022-11-27T22:12:17.370Z,3.39
2022-11-27T22:14:50.660Z,3.32
2022-11-27T22:17:23.896Z,3.29
2022-11-27T22:19:54.423Z,3.03
2022-11-27T22:22:23.083Z,3.17
2022-11-27T22:24:51.753Z,3.20
2022-11-27T22:27:20.410Z,3.24
2022-11-27T22:29:51.294Z,3.27
2022-11-27T22:32:20.176Z,3.20
2022-11-27T22:34:49.024Z,3.17
2022-11-27T22:37:18.234Z,3.15
2022-11-27T22:39:46.720Z,3.17
2022-11-27T22:42:15.292Z,3.10
2022-11-27T22:44:44.216Z,3.16
2022-11-27T22:47:14.583Z,3.23
2022-11-27T22:49:43.407Z,3.27
2022-11-27T22:52:12.163Z,3.27
2022-11-27T22:54:41.474Z,3.27
2022-11-27T22:57:10.253Z,3.26
2022-11-27T22:59:38.912Z,3.33
2022-11-27T23:02:08.497Z,3.35
2022-11-27T23:04:39.422Z,3.44
2022-11-27T23:07:09.177Z,3.41
2022-11-27T23:09:38.254Z,3.41
2022-11-27T23:12:07.392Z,3.42
2022-11-27T23:14:36.072Z,3.47
2022-11-27T23:17:06.084Z,3.49
2022-11-27T23:19:34.752Z,3.56
2022-11-27T23:22:04.837Z,3.60
2022-11-27T23:24:33.472Z,3.59
2022-11-27T23:27:02.192Z,3.61
2022-11-27T23:29:30.816Z,3.63
2022-11-27T23:31:59.545Z,3.63
2022-11-27T23:34:28.210Z,3.63
2022-11-27T23:36:56.807Z,3.63
2022-11-27T23:39:26.842Z,3.70
2022-11-27T23:41:55.377Z,3.73
2022-11-27T23:44:24.012Z,3.75
2022-11-27T23:46:52.672Z,3.76
2022-11-27T23:49:21.520Z,3.78
2022-11-27T23:51:50.140Z,3.80
2022-11-27T23:54:18.752Z,3.86
2022-11-27T23:56:52.524Z,3.89
2022-11-27T23:59:21.161Z,3.92
